Time;durP1;ratioP1;P1;durP2;ratioP2;P2;SDS_P1;SDS_P2;PMS_P1;PMS_P2;Temp;Humidity;BMP_temperature;BMP_pressure;BME280_temperature;BME280_humidity;BME280_pressure;Samples;Min_cycle;Max_cycle;Signal;HPM_P1;HPM_P2
2022/09/19 00:02:06;;;;;;;2.90;0.70;;;;;;;7.70;72.29;98129.64;106333;1272;23685;-82
2022/09/19 00:04:33;;;;;;;1.80;0.50;;;;;;;7.72;72.46;98127.23;106229;1271;25431;-85
2022/09/19 00:07:23;;;;;;;;;;;;;;;;;;;;;
2022/09/19 00:09:57;;;;;;;2.40;0.30;;;;;;;7.77;72.43;98126.29;106237;1271;22531;-79
2022/09/19 00:12:40;;;;;;;1.60;0.60;;;;;;;7.80;72.48;98120.90;106058;1271;25334;-79
2022/09/19 00:15:12;;;;;;;1.80;0.50;;;;;;;7.85;72.57;98118.80;106314;1272;25294;-79
2022/09/19 00:17:53;;;;;;;4.20;0.60;;;;;;;7.88;72.66;98120.55;106029;1272;24303;-88
2022/09/19 00:20:20;;;;;;;3.50;0.60;;;;;;;7.90;72.60;98124.48;106079;1271;25525;-84
2022/09/19 00:24:45;;;;;;;3.00;0.60;;;;;;;7.90;72.56;98119.66;106377;1271;22620;-79
2022/09/19 00:25:37;;;;;;;2.80;0.60;;;;;;;7.89;72.55;98119.77;105894;1274;22556;-81
2022/09/19 00:28:19;;;;;;;2.00;0.40;;;;;;;7.87;72.57;98121.83;105885;1273;22863;-83
2022/09/19 00:30:48;;;;;;;3.60;0.60;;;;;;;7.88;72.51;98119.44;106120;1273;24264;-83
2022/09/19 00:33:16;;;;;;;2.00;0.40;;;;;;;7.89;72.68;98123.27;106017;1273;24213;-81
2022/09/19 00:36:01;;;;;;;2.90;0.60;;;;;;;7.90;72.40;98123.06;105848;1273;22535;-82
2022/09/19 00:38:33;;;;;;;3.30;0.50;;;;;;;7.89;72.48;98122.40;106262;1274;22548;-81
2022/09/19 00:41:05;;;;;;;3.50;0.70;;;;;;;7.87;72.53;98122.51;105988;1271;25336;-80
2022/09/19 00:43:49;;;;;;;2.20;0.30;;;;;;;7.85;72.64;98120.89;106040;1271;25463;-79
2022/09/19 00:46:21;;;;;;;1.20;0.40;;;;;;;7.83;72.53;98120.37;105955;1271;22776;-83
2022/09/19 00:49:01;;;;;;;3.20;0.50;;;;;;;7.81;72.53;98122.60;106019;1271;22543;-84
2022/09/19 00:51:45;;;;;;;2.30;0.50;;;;;;;7.80;72.55;98123.38;106144;1272;25518;-79
2022/09/19 00:54:18;;;;;;;2.70;0.80;;;;;;;7.78;72.60;98124.42;105974;1273;22529;-84
2022/09/19 00:57:09;;;;;;;1.00;0.40;;;;;;;7.76;72.77;98124.21;106081;1272;25375;-77
2022/09/19 00:59:53;;;;;;;2.80;0.40;;;;;;;7.76;72.64;98127.08;106013;1274;25577;-79
2022/09/19 01:02:28;;;;;;;2.70;0.60;;;;;;;7.75;72.71;98127.15;106054;1271;25298;-78
2022/09/19 01:04:59;;;;;;;2.90;0.50;;;;;;;7.76;72.69;98123.90;106260;1271;25428;-79
2022/09/19 01:07:43;;;;;;;3.40;0.60;;;;;;;7.76;72.69;98128.15;106201;1271;22531;-78
2022/09/19 01:10:48;;;;;;;2.30;0.60;;;;;;;7.77;72.76;98122.23;105995;1271;22779;-79
2022/09/19 01:14:08;;;;;;;3.50;0.50;;;;;;;7.76;72.83;98122.66;106348;1271;22614;-80
2022/09/19 01:17:08;;;;;;;1.70;0.20;;;;;;;7.74;72.85;98122.27;106398;1271;22564;-77
2022/09/19 01:20:12;;;;;;;2.50;0.60;;;;;;;7.73;72.86;98121.98;105959;1274;22553;-86
2022/09/19 01:23:25;;;;;;;1.10;0.40;;;;;;;7.71;72.97;98124.32;106209;1272;22695;-84
2022/09/19 01:25:58;;;;;;;1.50;0.30;;;;;;;7.69;72.91;98120.70;106150;1271;24412;-79
2022/09/19 01:28:33;;;;;;;3.50;0.30;;;;;;;7.69;73.02;98122.27;106144;1271;25188;-79
2022/09/19 01:31:20;;;;;;;2.80;0.50;;;;;;;7.72;73.09;98127.40;105995;1271;22686;-78
2022/09/19 01:34:09;;;;;;;2.40;0.50;;;;;;;7.75;73.01;98128.08;106217;1271;25363;-80
2022/09/19 01:37:12;;;;;;;;;;;;;;;;;;;;;
2022/09/19 01:40:02;;;;;;;1.60;0.50;;;;;;;7.80;73.02;98123.71;106303;1272;24243;-84
2022/09/19 01:42:35;;;;;;;2.70;0.50;;;;;;;7.81;73.04;98128.45;106317;1271;22547;-83
2022/09/19 01:45:19;;;;;;;3.10;0.70;;;;;;;7.81;73.11;98124.17;106068;1271;25275;-79
2022/09/19 01:47:58;;;;;;;1.00;0.40;;;;;;;7.83;73.11;98124.47;106052;1271;25404;-78
2022/09/19 01:51:04;;;;;;;1.80;0.50;;;;;;;7.81;73.06;98125.11;106318;1271;24170;-83
2022/09/19 01:54:09;;;;;;;2.10;0.40;;;;;;;7.79;73.00;98129.38;105689;1279;24747;-83
2022/09/19 01:57:59;;;;;;;2.30;0.40;;;;;;;7.77;73.00;98119.54;105553;1279;22534;-84
2022/09/19 02:00:42;;;;;;;1.70;0.40;;;;;;;7.77;72.99;98121.52;105622;1279;25902;-81
2022/09/19 02:03:36;;;;;;;1.30;0.30;;;;;;;7.76;72.98;98128.16;105672;1279;24429;-79
2022/09/19 02:06:49;;;;;;;2.20;0.50;;;;;;;7.74;73.13;98131.98;105682;1280;25228;-78
2022/09/19 02:09:50;;;;;;;2.20;0.40;;;;;;;7.75;73.07;98133.71;105485;1282;24293;-78
2022/09/19 02:12:27;;;;;;;3.20;0.60;;;;;;;7.79;73.10;98131.14;105665;1279;22541;-82
2022/09/19 02:15:04;;;;;;;2.70;0.30;;;;;;;7.78;73.13;98124.11;105605;1279;24262;-80
2022/09/19 02:17:48;;;;;;;1.90;0.40;;;;;;;7.78;73.08;98123.74;105545;1279;25483;-78
2022/09/19 02:20:46;;;;;;;;;;;;;;;;;;;;;
2022/09/19 02:23:41;;;;;;;;;;;;;;;;;;;;;
2022/09/19 02:26:31;;;;;;;2.20;0.50;;;;;;;7.77;73.04;98129.64;105334;1279;22575;-79
2022/09/19 02:29:32;;;;;;;3.60;0.30;;;;;;;7.80;73.27;98129.42;105989;1274;24399;-81
2022/09/19 02:32:23;;;;;;;3.20;0.40;;;;;;;7.86;73.29;98134.27;106370;1271;25477;-79
2022/09/19 02:35:36;;;;;;;2.70;0.70;;;;;;;7.86;73.25;98138.19;105923;1274;25493;-84
2022/09/19 02:39:12;;;;;;;2.80;0.40;;;;;;;7.85;73.18;98135.94;105870;1276;22515;-82
2022/09/19 02:42:32;;;;;;;2.40;0.40;;;;;;;7.85;73.26;98140.54;105775;1279;24422;-85
2022/09/19 02:45:07;;;;;;;2.50;0.40;;;;;;;7.84;73.36;98140.29;105780;1278;22554;-85
2022/09/19 02:47:54;;;;;;;2.10;0.50;;;;;;;7.81;73.26;98141.40;105900;1276;23309;-80
2022/09/19 02:51:15;;;;;;;;;;;;;;;;;;;;;
2022/09/19 02:54:35;;;;;;;1.00;0.30;;;;;;;7.74;73.39;98144.58;105741;1279;25354;-78
2022/09/19 02:57:10;;;;;;;2.10;0.30;;;;;;;7.67;73.46;98144.23;105742;1277;25377;-79
2022/09/19 02:59:42;;;;;;;1.60;0.30;;;;;;;7.63;73.35;98144.02;105863;1276;24200;-80
2022/09/19 03:02:29;;;;;;;3.10;0.80;;;;;;;7.62;73.57;98148.16;105688;1280;22560;-85
2022/09/19 03:05:14;;;;;;;2.50;0.40;;;;;;;7.61;73.55;98148.09;105823;1277;22757;-84
2022/09/19 03:08:15;;;;;;;2.00;0.40;;;;;;;7.59;73.74;98149.06;105752;1277;25294;-77
2022/09/19 03:11:29;;;;;;;1.90;0.30;;;;;;;7.66;73.87;98147.86;106318;1273;23965;-79
2022/09/19 03:14:06;;;;;;;2.90;0.40;;;;;;;7.71;73.84;98149.79;106277;1272;25238;-79
2022/09/19 03:16:46;;;;;;;1.90;0.40;;;;;;;7.76;73.89;98149.23;106258;1273;24797;-80
2022/09/19 03:19:26;;;;;;;0.80;0.20;;;;;;;7.79;73.88;98150.05;106082;1274;22821;-78
2022/09/19 03:22:14;;;;;;;1.30;0.40;;;;;;;7.77;73.83;98151.27;106338;1272;24204;-83
2022/09/19 03:24:51;;;;;;;2.70;0.30;;;;;;;7.76;73.92;98149.40;106082;1271;23987;-81
2022/09/19 03:27:21;;;;;;;0.90;0.30;;;;;;;7.78;73.99;98155.26;105998;1274;22543;-80
2022/09/19 03:29:52;;;;;;;2.30;0.50;;;;;;;7.82;74.10;98153.23;106018;1273;22531;-84
2022/09/19 03:32:39;;;;;;;3.20;0.60;;;;;;;7.86;74.17;98156.08;106115;1274;24261;-81
2022/09/19 03:35:15;;;;;;;3.40;0.50;;;;;;;7.92;74.11;98157.79;106079;1271;24262;-86
2022/09/19 03:37:46;;;;;;;3.50;0.50;;;;;;;7.98;74.28;98155.22;106084;1272;22526;-85
2022/09/19 03:40:22;;;;;;;3.90;0.50;;;;;;;8.02;74.06;98157.77;105935;1271;25421;-80
2022/09/19 03:42:55;;;;;;;2.40;0.50;;;;;;;8.03;74.11;98161.19;106033;1274;25480;-78
2022/09/19 03:45:36;;;;;;;1.60;0.40;;;;;;;8.03;74.05;98163.65;105960;1273;24248;-79
2022/09/19 03:48:24;;;;;;;2.30;0.40;;;;;;;8.00;74.04;98162.85;105993;1274;22605;-84
2022/09/19 03:51:02;;;;;;;1.90;0.20;;;;;;;7.94;74.03;98164.16;106017;1273;24209;-83
2022/09/19 03:53:30;;;;;;;1.60;0.30;;;;;;;7.93;73.99;98166.92;105945;1273;25603;-81
2022/09/19 03:56:00;;;;;;;1.80;0.50;;;;;;;7.90;74.00;98168.92;105989;1272;24237;-81
2022/09/19 03:58:51;;;;;;;3.10;0.70;;;;;;;7.89;74.24;98167.58;106020;1274;22556;-83
2022/09/19 04:01:27;;;;;;;0.90;0.20;;;;;;;7.90;74.13;98169.12;106076;1274;25223;-79
2022/09/19 04:04:19;;;;;;;;;;;;;;;;;;;;;
2022/09/19 04:07:01;;;;;;;1.30;0.20;;;;;;;7.76;74.02;98168.20;106253;1274;22845;-82
2022/09/19 04:09:36;;;;;;;1.80;0.30;;;;;;;7.74;74.00;98171.87;105921;1275;25650;-85
2022/09/19 04:12:18;;;;;;;1.40;0.30;;;;;;;7.73;74.05;98173.23;106360;1271;22539;-80
2022/09/19 04:14:48;;;;;;;2.90;0.40;;;;;;;7.68;74.09;98170.55;106264;1273;25293;-77
2022/09/19 04:17:29;;;;;;;1.40;0.20;;;;;;;7.66;74.04;98174.41;106344;1271;23338;-79
2022/09/19 04:20:07;;;;;;;0.80;0.20;;;;;;;7.65;74.09;98176.65;106378;1271;25231;-78
2022/09/19 04:22:49;;;;;;;0.80;0.20;;;;;;;7.61;74.04;98175.54;106227;1271;22615;-82
2022/09/19 04:25:29;;;;;;;0.80;0.30;;;;;;;7.61;74.21;98177.98;106227;1273;22552;-85
2022/09/19 04:28:28;;;;;;;1.40;0.20;;;;;;;7.61;74.32;98179.26;106045;1273;23909;-84
2022/09/19 04:31:08;;;;;;;1.20;0.20;;;;;;;7.61;74.23;98181.94;106009;1274;22547;-79
2022/09/19 04:33:41;;;;;;;1.10;0.30;;;;;;;7.58;74.41;98186.90;106044;1272;22624;-81
2022/09/19 04:36:54;;;;;;;3.60;0.40;;;;;;;7.57;74.36;98192.99;105991;1274;22539;-82
2022/09/19 04:39:22;;;;;;;0.60;0.20;;;;;;;7.57;74.41;98192.27;106207;1273;22636;-85
2022/09/19 04:41:53;;;;;;;1.40;0.30;;;;;;;7.58;74.50;98195.60;106079;1272;22575;-77
2022/09/19 04:44:40;;;;;;;0.70;0.20;;;;;;;7.59;74.53;98203.27;105972;1274;23143;-83
2022/09/19 04:47:20;;;;;;;0.90;0.20;;;;;;;7.57;74.32;98202.56;106308;1272;22598;-82
2022/09/19 04:49:50;;;;;;;1.40;0.30;;;;;;;7.60;74.60;98207.13;105956;1274;22842;-78
2022/09/19 04:52:27;;;;;;;0.90;0.40;;;;;;;7.63;74.55;98208.86;105883;1274;25436;-80
2022/09/19 04:55:04;;;;;;;1.90;0.50;;;;;;;7.57;74.46;98214.63;106128;1274;22555;-80
2022/09/19 04:57:31;;;;;;;1.90;0.40;;;;;;;7.48;74.45;98215.27;105963;1276;24219;-82
2022/09/19 05:00:38;;;;;;;0.80;0.30;;;;;;;7.46;74.55;98216.16;106358;1274;22623;-84
2022/09/19 05:03:12;;;;;;;2.50;0.40;;;;;;;7.45;74.70;98222.97;106003;1273;25431;-77
2022/09/19 05:05:50;;;;;;;5.30;0.60;;;;;;;7.47;74.71;98223.63;106025;1274;24207;-80
2022/09/19 05:08:32;;;;;;;6.10;0.70;;;;;;;7.56;74.82;98228.99;106079;1274;22531;-83
2022/09/19 05:11:22;;;;;;;2.60;0.50;;;;;;;7.63;74.87;98227.43;105983;1273;24567;-79
2022/09/19 05:13:55;;;;;;;4.80;0.40;;;;;;;7.65;74.77;98234.60;106208;1274;26787;-77
2022/09/19 05:16:38;;;;;;;3.80;0.60;;;;;;;7.67;74.87;98240.27;106261;1273;23937;-82
2022/09/19 05:19:06;;;;;;;3.00;0.40;;;;;;;7.72;74.96;98242.39;106190;1271;25221;-77
2022/09/19 05:21:44;;;;;;;2.40;0.60;;;;;;;7.78;74.89;98242.84;106020;1271;22624;-85
2022/09/19 05:24:12;;;;;;;2.60;0.50;;;;;;;7.81;74.74;98239.70;106192;1273;25307;-77
2022/09/19 05:26:41;;;;;;;3.40;0.50;;;;;;;7.81;74.55;98246.47;105915;1274;25357;-77
2022/09/19 05:29:18;;;;;;;2.20;0.30;;;;;;;7.79;74.78;98258.14;106275;1272;25426;-79
2022/09/19 05:32:07;;;;;;;5.50;0.70;;;;;;;7.87;75.04;98260.77;106309;1272;24282;-84
2022/09/19 05:34:42;;;;;;;3.50;0.60;;;;;;;7.93;74.88;98265.14;106035;1271;25320;-78
2022/09/19 05:37:24;;;;;;;3.40;0.50;;;;;;;7.96;74.96;98267.19;106023;1273;25510;-79
2022/09/19 05:40:13;;;;;;;5.60;0.60;;;;;;;8.05;74.99;98266.72;106305;1271;25592;-80
2022/09/19 05:43:11;;;;;;;3.40;0.50;;;;;;;8.10;74.97;98270.77;106132;1274;23033;-79
2022/09/19 05:46:31;;;;;;;10.00;1.70;;;;;;;8.13;74.94;98278.45;106278;1274;22532;-83
2022/09/19 05:48:38;;;;;;;4.80;1.40;;;;;;;8.18;74.92;98279.04;105952;1274;25367;-78
2022/09/19 05:51:14;;;;;;;4.80;0.90;;;;;;;8.21;75.03;98282.69;105975;1276;25236;-79
2022/09/19 05:54:03;;;;;;;5.30;1.30;;;;;;;8.27;74.90;98284.56;106028;1275;22552;-86
2022/09/19 05:57:41;;;;;;;;;;;;;;;;;;;;;
2022/09/19 06:00:37;;;;;;;7.80;2.30;;;;;;;8.44;75.03;98292.35;105791;1279;22540;-84
2022/09/19 06:04:01;;;;;;;;;;;;;;;;;;;;;
2022/09/19 06:06:40;;;;;;;11.90;4.40;;;;;;;8.61;75.14;98298.34;105797;1277;24230;-83
2022/09/19 06:09:30;;;;;;;10.60;4.20;;;;;;;8.68;75.17;98299.27;105770;1280;22711;-82
2022/09/19 06:12:02;;;;;;;6.50;1.70;;;;;;;8.67;75.02;98306.22;105778;1280;22701;-81
2022/09/19 06:15:14;;;;;;;4.80;1.90;;;;;;;8.67;75.18;98305.01;105717;1280;22585;-86
2022/09/19 06:18:24;;;;;;;8.20;2.70;;;;;;;8.65;74.92;98308.14;105341;1284;22710;-78
2022/09/19 06:21:19;;;;;;;4.80;1.00;;;;;;;8.67;74.87;98310.81;105083;1284;22596;-80
2022/09/19 06:23:49;;;;;;;4.10;0.80;;;;;;;8.59;74.75;98313.54;105318;1284;22560;-85
2022/09/19 06:26:55;;;;;;;3.90;0.90;;;;;;;8.55;75.00;98316.02;105185;1284;25649;-85
2022/09/19 06:29:28;;;;;;;3.00;1.00;;;;;;;8.59;75.08;98312.70;105562;1280;25429;-79
2022/09/19 06:32:53;;;;;;;;;;;;;;;;;;;;;
2022/09/19 06:35:35;;;;;;;3.60;1.00;;;;;;;8.61;75.02;98311.98;105206;1284;22633;-85
2022/09/19 06:38:07;;;;;;;3.70;0.90;;;;;;;8.64;74.94;98317.42;105040;1286;22542;-80
2022/09/19 06:40:44;;;;;;;6.80;1.50;;;;;;;8.72;75.09;98315.94;105136;1286;24420;-83
2022/09/19 06:43:34;;;;;;;4.00;1.10;;;;;;;8.78;75.05;98319.23;104879;1284;25471;-76
2022/09/19 06:46:20;;;;;;;5.10;1.40;;;;;;;8.80;75.04;98323.68;105398;1285;25759;-78
2022/09/19 06:49:07;;;;;;;3.50;1.00;;;;;;;8.85;75.25;98323.27;105445;1283;25395;-78
2022/09/19 06:51:42;;;;;;;4.20;1.30;;;;;;;8.87;75.16;98330.81;105138;1286;25521;-78
2022/09/19 06:54:13;;;;;;;3.60;1.20;;;;;;;8.85;75.19;98333.54;105364;1284;22564;-82
2022/09/19 06:56:49;;;;;;;5.30;1.70;;;;;;;8.87;75.19;98339.67;105751;1280;22661;-83
2022/09/19 06:59:19;;;;;;;4.60;1.20;;;;;;;8.84;75.13;98341.68;105721;1280;25440;-77
2022/09/19 07:02:10;;;;;;;4.30;1.20;;;;;;;8.81;75.07;98344.35;105656;1279;22811;-82
2022/09/19 07:05:06;;;;;;;4.30;1.20;;;;;;;8.85;75.07;98346.90;106198;1271;25038;-83
2022/09/19 07:08:02;;;;;;;4.90;1.50;;;;;;;8.81;75.01;98351.96;105966;1274;22596;-81
2022/09/19 07:10:30;;;;;;;4.30;1.40;;;;;;;8.77;74.96;98357.11;106195;1273;22573;-78
2022/09/19 07:13:01;;;;;;;5.10;1.60;;;;;;;8.71;75.01;98362.73;105946;1277;22552;-81
2022/09/19 07:15:32;;;;;;;5.60;1.30;;;;;;;8.75;75.36;98365.21;106223;1271;22848;-82
2022/09/19 07:18:19;;;;;;;6.30;1.40;;;;;;;8.88;75.46;98365.80;106303;1271;25322;-81
2022/09/19 07:20:52;;;;;;;6.70;2.10;;;;;;;8.98;75.23;98366.33;106330;1271;22548;-81
2022/09/19 07:23:33;;;;;;;8.10;2.10;;;;;;;9.10;75.30;98369.66;106195;1271;25339;-79
2022/09/19 07:26:08;;;;;;;7.80;1.90;;;;;;;9.29;75.19;98372.46;106342;1271;22713;-77
2022/09/19 07:28:38;;;;;;;5.20;1.60;;;;;;;9.35;74.99;98373.37;105991;1272;23924;-80
2022/09/19 07:31:20;;;;;;;6.00;2.40;;;;;;;9.42;75.21;98371.62;106334;1271;24425;-78
2022/09/19 07:34:05;;;;;;;5.50;1.50;;;;;;;9.64;75.63;98376.80;106123;1272;22534;-79
2022/09/19 07:36:33;;;;;;;6.10;2.20;;;;;;;9.73;74.86;98375.53;106299;1273;22571;-84
2022/09/19 07:39:05;;;;;;;6.20;2.70;;;;;;;9.70;74.65;98380.06;106011;1274;22551;-81
2022/09/19 07:41:54;;;;;;;6.00;2.10;;;;;;;9.71;74.92;98381.94;106089;1274;22554;-77
2022/09/19 07:44:53;;;;;;;6.60;2.10;;;;;;;9.87;74.85;98380.32;105793;1271;22596;-79
2022/09/19 07:48:07;;;;;;;5.30;2.10;;;;;;;9.96;74.52;98388.23;106066;1271;22541;-83
2022/09/19 07:51:02;;;;;;;7.60;2.70;;;;;;;10.00;74.50;98387.42;106003;1271;24413;-78
2022/09/19 07:53:43;;;;;;;5.90;2.20;;;;;;;10.14;74.77;98385.09;105945;1274;25423;-78
2022/09/19 07:56:13;;;;;;;5.60;1.70;;;;;;;10.22;74.65;98387.45;106213;1272;25442;-78
2022/09/19 07:58:42;;;;;;;5.50;2.00;;;;;;;10.23;74.31;98390.75;106398;1271;24204;-80
2022/09/19 08:01:36;;;;;;;6.10;2.50;;;;;;;10.15;74.40;98391.20;106250;1271;25206;-82
2022/09/19 08:04:31;;;;;;;6.00;1.90;;;;;;;10.09;74.63;98394.52;106261;1271;25318;-78
2022/09/19 08:07:10;;;;;;;5.30;1.90;;;;;;;10.08;74.58;98404.59;106280;1271;24317;-79
2022/09/19 08:09:40;;;;;;;7.30;2.20;;;;;;;9.99;74.52;98403.47;105947;1271;25292;-82
2022/09/19 08:12:12;;;;;;;6.60;2.30;;;;;;;9.96;74.75;98407.10;106347;1271;25347;-79
2022/09/19 08:14:44;;;;;;;5.00;2.30;;;;;;;10.07;75.01;98408.18;106072;1274;22547;-78
2022/09/19 08:17:12;;;;;;;4.70;1.40;;;;;;;10.23;74.97;98412.09;106382;1271;25481;-79
2022/09/19 08:19:43;;;;;;;6.50;2.00;;;;;;;10.38;74.97;98409.52;106077;1271;22532;-81
2022/09/19 08:22:13;;;;;;;3.60;1.40;;;;;;;10.61;75.16;98412.53;106271;1274;25651;-78
2022/09/19 08:24:49;;;;;;;6.40;1.50;;;;;;;10.77;74.70;98409.62;106280;1271;22579;-86
2022/09/19 08:27:27;;;;;;;5.30;1.40;;;;;;;10.81;74.29;98410.86;106137;1274;22867;-83
2022/09/19 08:30:01;;;;;;;5.00;1.40;;;;;;;10.84;74.02;98411.02;106218;1273;22556;-85
2022/09/19 08:32:28;;;;;;;3.80;1.00;;;;;;;10.91;74.26;98410.91;106302;1274;22537;-84
2022/09/19 08:34:58;;;;;;;5.70;1.60;;;;;;;11.07;74.37;98411.58;106135;1271;22548;-86
2022/09/19 08:37:29;;;;;;;6.70;1.50;;;;;;;11.30;74.25;98416.52;106271;1274;22538;-85
2022/09/19 08:40:15;;;;;;;5.70;1.30;;;;;;;11.63;74.27;98412.45;106070;1271;22537;-80
2022/09/19 08:43:25;;;;;;;5.70;1.50;;;;;;;12.03;74.05;98415.63;106282;1271;25455;-80
2022/09/19 08:46:26;;;;;;;4.20;1.20;;;;;;;12.14;73.38;98417.41;105715;1280;25637;-77
2022/09/19 08:48:58;;;;;;;4.80;1.10;;;;;;;12.07;73.15;98422.55;105363;1284;25784;-86
2022/09/19 08:51:45;;;;;;;4.30;1.40;;;;;;;12.05;73.56;98425.39;105402;1284;22706;-84
2022/09/19 08:54:29;;;;;;;6.40;1.60;;;;;;;12.03;73.45;98428.41;105186;1286;22631;-83
2022/09/19 08:57:49;;;;;;;4.70;1.40;;;;;;;12.08;73.43;98428.71;105355;1285;25252;-80
2022/09/19 09:00:37;;;;;;;6.80;1.60;;;;;;;12.06;73.15;98428.48;105379;1284;26035;-79
2022/09/19 09:03:10;;;;;;;4.20;0.90;;;;;;;12.18;73.59;98434.11;105402;1284;24439;-81
2022/09/19 09:05:51;;;;;;;3.60;1.00;;;;;;;12.17;72.95;98435.77;105063;1286;24473;-85
2022/09/19 09:09:00;;;;;;;5.20;1.50;;;;;;;12.05;73.16;98435.23;105302;1284;22630;-79
2022/09/19 09:11:39;;;;;;;5.40;1.20;;;;;;;12.12;73.61;98444.73;104933;1285;24423;-82
2022/09/19 09:14:33;;;;;;;3.70;0.90;;;;;;;12.17;73.32;98443.21;105373;1284;22736;-81
2022/09/19 09:17:25;;;;;;;6.80;1.60;;;;;;;12.06;73.06;98446.35;105414;1284;22578;-85
2022/09/19 09:20:24;;;;;;;4.30;0.90;;;;;;;12.05;72.91;98451.58;105330;1284;24652;-83
2022/09/19 09:23:17;;;;;;;6.00;1.20;;;;;;;11.86;73.01;98454.86;105493;1284;25356;-81
2022/09/19 09:26:00;;;;;;;5.70;1.10;;;;;;;11.86;73.45;98453.84;106229;1271;23242;-82
2022/09/19 09:28:40;;;;;;;8.00;1.40;;;;;;;11.96;73.40;98450.28;106336;1274;23382;-80
2022/09/19 09:31:53;;;;;;;4.40;0.70;;;;;;;12.17;73.56;98455.55;106078;1277;26581;-81
2022/09/19 09:34:54;;;;;;;4.40;0.90;;;;;;;12.25;72.81;98458.39;106247;1274;24295;-81
2022/09/19 09:38:04;;;;;;;4.40;1.10;;;;;;;12.20;72.87;98458.48;106373;1272;22557;-83
2022/09/19 09:44:57;;;;;;;3.10;0.80;;;;;;;11.97;72.72;98474.84;106249;1271;22544;-80
2022/09/19 09:47:50;;;;;;;5.80;1.20;;;;;;;11.74;72.53;98474.80;103051;1274;4143902;-78
2022/09/19 09:50:49;;;;;;;4.00;0.90;;;;;;;11.62;72.79;98475.84;105991;1271;22554;-84
2022/09/19 09:53:31;;;;;;;4.30;1.10;;;;;;;11.53;73.08;98480.52;106222;1272;22544;-86
2022/09/19 09:56:26;;;;;;;5.10;0.90;;;;;;;11.36;72.83;98483.56;106060;1272;22641;-78
2022/09/19 10:06:12;;;;;;;3.20;0.70;;;;;;;11.04;73.09;98494.13;105789;1281;25513;-81
2022/09/19 10:09:02;;;;;;;3.50;1.00;;;;;;;11.15;73.33;98489.95;105763;1281;24603;-86
2022/09/19 10:12:14;;;;;;;3.00;0.70;;;;;;;11.37;73.25;98487.45;105831;1277;22583;-85
2022/09/19 10:15:16;;;;;;;4.50;1.10;;;;;;;11.43;72.98;98485.80;105781;1277;22550;-82
2022/09/19 10:18:09;;;;;;;5.90;1.20;;;;;;;11.55;73.46;98486.77;105836;1278;22551;-87
2022/09/19 10:21:04;;;;;;;5.30;0.70;;;;;;;11.73;73.03;98485.05;105932;1278;22551;-82
2022/09/19 10:23:50;;;;;;;3.20;0.90;;;;;;;11.68;72.93;98487.80;105859;1275;22543;-81
2022/09/19 10:26:39;;;;;;;5.80;1.30;;;;;;;11.57;72.84;98494.77;106077;1273;25577;-83
2022/09/19 10:29:24;;;;;;;5.10;1.20;;;;;;;11.49;73.22;98493.66;106063;1271;25598;-81
2022/09/19 10:32:30;;;;;;;3.80;0.90;;;;;;;11.47;73.30;98494.95;106087;1271;25311;-79
2022/09/19 10:35:07;;;;;;;3.50;0.80;;;;;;;11.41;73.49;98498.51;106122;1272;22562;-79
2022/09/19 10:37:46;;;;;;;3.30;1.20;;;;;;;11.34;73.41;98503.20;106311;1271;25380;-79
2022/09/19 10:40:27;;;;;;;5.20;1.40;;;;;;;11.30;73.36;98504.95;105841;1274;24327;-80
2022/09/19 10:43:12;;;;;;;3.50;1.40;;;;;;;11.33;73.82;98510.41;106131;1275;23941;-81
2022/09/19 10:46:27;;;;;;;5.10;1.40;;;;;;;11.33;73.61;98512.71;105929;1271;25232;-80
2022/09/19 10:49:30;;;;;;;6.40;1.60;;;;;;;11.14;73.55;98516.30;106198;1271;25631;-79
2022/09/19 10:52:06;;;;;;;3.90;1.20;;;;;;;11.09;73.76;98518.64;106111;1274;24388;-80
2022/09/19 10:55:00;;;;;;;5.60;1.90;;;;;;;10.96;73.53;98519.85;105782;1274;24365;-81
2022/09/19 10:57:48;;;;;;;8.50;2.70;;;;;;;10.90;73.83;98525.23;105877;1271;25353;-79
2022/09/19 11:00:25;;;;;;;14.10;5.90;;;;;;;10.88;73.92;98530.70;105938;1272;23189;-81
2022/09/19 11:03:02;;;;;;;7.50;2.90;;;;;;;10.98;74.23;98529.48;106030;1274;24361;-80
2022/09/19 11:06:05;;;;;;;8.00;2.20;;;;;;;11.13;74.15;98530.09;106149;1271;22791;-80
2022/09/19 11:08:50;;;;;;;8.00;2.00;;;;;;;11.27;74.19;98524.12;106001;1276;23356;-80
2022/09/19 11:11:48;;;;;;;7.60;2.00;;;;;;;11.25;73.77;98524.58;106121;1271;25350;-79
2022/09/19 11:14:55;;;;;;;5.90;1.50;;;;;;;11.20;73.64;98528.39;106231;1274;25450;-80
2022/09/19 11:17:30;;;;;;;6.60;1.80;;;;;;;11.13;74.16;98528.46;105979;1276;25229;-78
2022/09/19 11:20:39;;;;;;;6.50;1.70;;;;;;;11.29;74.57;98525.52;106085;1273;22767;-78
2022/09/19 11:23:56;;;;;;;6.90;1.90;;;;;;;11.34;73.99;98523.08;106268;1271;24232;-78
2022/09/19 11:26:48;;;;;;;7.00;1.60;;;;;;;11.40;74.21;98520.88;105876;1274;22541;-79
2022/09/19 11:29:46;;;;;;;4.80;1.40;;;;;;;11.50;74.10;98524.45;105891;1276;25585;-79
2022/09/19 11:33:34;;;;;;;4.60;1.40;;;;;;;11.59;74.21;98528.52;106156;1272;24415;-82
2022/09/19 11:36:48;;;;;;;3.80;1.00;;;;;;;11.56;74.06;98533.35;106103;1271;25649;-79
2022/09/19 11:39:26;;;;;;;6.00;1.40;;;;;;;11.51;74.01;98530.05;106131;1276;23251;-81
2022/09/19 11:42:14;;;;;;;4.10;1.40;;;;;;;11.56;74.37;98529.41;105950;1272;22838;-80
2022/09/19 11:44:59;;;;;;;3.70;1.00;;;;;;;11.55;74.24;98535.23;106255;1274;25376;-79
2022/09/19 11:48:31;;;;;;;1.60;0.60;;;;;;;11.42;74.03;98526.58;106082;1274;23795;-78
2022/09/19 11:51:30;;;;;;;4.60;1.50;;;;;;;11.24;73.99;98523.45;106362;1274;24409;-80
2022/09/19 11:54:28;;;;;;;2.30;0.80;;;;;;;11.10;73.81;98526.54;106086;1274;25330;-78
2022/09/19 11:57:55;;;;;;;2.60;0.80;;;;;;;11.11;74.41;98524.13;106285;1271;24313;-77
2022/09/19 12:00:40;;;;;;;2.00;0.70;;;;;;;11.25;74.50;98522.30;105403;1281;23279;-81
2022/09/19 12:03:53;;;;;;;2.40;0.80;;;;;;;11.27;74.30;98527.50;105609;1280;25278;-79
2022/09/19 12:07:18;;;;;;;4.40;0.90;;;;;;;11.33;74.64;98521.05;105721;1280;22888;-79
2022/09/19 12:10:18;;;;;;;4.00;1.00;;;;;;;11.43;74.41;98520.93;105519;1281;25504;-81
2022/09/19 12:13:35;;;;;;;5.90;1.00;;;;;;;11.45;73.99;98520.41;104737;1287;24241;-80
2022/09/19 12:16:17;;;;;;;3.00;1.20;;;;;;;11.39;74.23;98521.98;104611;1288;22790;-77
2022/09/19 12:18:57;;;;;;;3.50;1.00;;;;;;;11.36;74.19;98520.95;104659;1289;25257;-80
2022/09/19 12:21:40;;;;;;;2.30;0.90;;;;;;;11.32;74.27;98517.27;104813;1290;25328;-80
2022/09/19 12:25:01;;;;;;;3.70;1.20;;;;;;;11.25;74.21;98516.23;104639;1290;25596;-79
2022/09/19 12:27:35;;;;;;;3.10;1.00;;;;;;;11.30;74.61;98509.17;104889;1288;25543;-81
2022/09/19 12:30:05;;;;;;;2.60;1.00;;;;;;;11.31;74.35;98514.66;104649;1289;22551;-79
2022/09/19 12:32:49;;;;;;;2.70;0.90;;;;;;;11.35;74.26;98518.77;105242;1284;22595;-81
2022/09/19 12:35:47;;;;;;;4.40;1.00;;;;;;;11.31;74.19;98518.71;105073;1285;25605;-80
2022/09/19 12:38:39;;;;;;;4.10;1.10;;;;;;;11.32;74.56;98517.10;105249;1284;22660;-82
2022/09/19 12:41:26;;;;;;;2.40;1.10;;;;;;;11.40;74.90;98516.20;105526;1284;25315;-81
2022/09/19 12:44:39;;;;;;;4.00;1.10;;;;;;;11.42;74.59;98520.50;105135;1285;22577;-80
2022/09/19 12:47:40;;;;;;;4.10;1.20;;;;;;;11.54;74.91;98512.02;104842;1289;22612;-79
2022/09/19 12:50:32;;;;;;;4.10;1.10;;;;;;;11.77;75.01;98511.10;104858;1287;24311;-80
2022/09/19 12:53:15;;;;;;;4.40;1.20;;;;;;;11.99;74.84;98506.06;105257;1282;23950;-79
2022/09/19 12:55:59;;;;;;;3.40;1.10;;;;;;;12.26;74.89;98506.67;105578;1281;22975;-81
2022/09/19 12:58:42;;;;;;;4.70;1.40;;;;;;;12.52;74.79;98505.64;105610;1281;23189;-80
2022/09/19 13:01:26;;;;;;;3.70;1.10;;;;;;;12.77;74.72;98503.29;105646;1281;24492;-80
2022/09/19 13:04:46;;;;;;;3.90;1.50;;;;;;;12.94;74.70;98505.80;105552;1281;25267;-79
2022/09/19 13:07:33;;;;;;;4.40;0.90;;;;;;;12.93;73.94;98512.11;105629;1281;22585;-78
2022/09/19 13:10:21;;;;;;;5.50;1.30;;;;;;;12.98;74.09;98510.80;105607;1281;22622;-81
2022/09/19 13:13:57;;;;;;;3.30;0.80;;;;;;;13.06;74.06;98509.23;105607;1281;24335;-80
2022/09/19 13:23:29;;;;;;;3.90;1.50;;;;;;;12.88;73.91;98514.26;105128;1287;25487;-80
2022/09/19 13:25:54;;;;;;;4.20;1.20;;;;;;;12.89;74.65;98515.20;105774;1277;25473;-78
2022/09/19 13:28:45;;;;;;;3.50;1.00;;;;;;;12.98;74.28;98514.33;105613;1277;23593;-79
2022/09/19 13:31:24;;;;;;;3.90;1.20;;;;;;;12.90;74.32;98510.10;105597;1278;25315;-79
2022/09/19 13:33:59;;;;;;;4.30;1.40;;;;;;;12.91;74.35;98510.70;105768;1278;22677;-78
2022/09/19 13:37:14;;;;;;;4.30;1.10;;;;;;;12.88;74.46;98518.98;105636;1280;24364;-81